| time (UTC) | temp C | wind direction | speed KPH | gust KPH | rain 1hr cm | rain 24hr cm | rain mn cm | humidity % | barometer mb |
| 20260507135003 | 14 | 18 | 0.0 | 14.5 | 0.05 | 0.46 | 0.46 | 96 | 1010.5 |
| 20260507134004 | 14 | 21 | 0.0 | 16.1 | 0.03 | 0.43 | 0.43 | 96 | 1010.5 |
| 20260507133004 | 14 | 29 | 1.6 | 16.1 | 0.05 | 0.43 | 0.43 | 96 | 1010.7 |
| 20260507132004 | 14 | 23 | 0.0 | 9.7 | 0.05 | 0.43 | 0.43 | 95 | 1010.7 |
| 20260507131004 | 14 | 22 | 0.0 | 0.0 | 0.05 | 0.43 | 0.43 | 95 | 1010.5 |
| 20260507125004 | 14 | 28 | 0.0 | 11.3 | 0.03 | 0.41 | 0.41 | 95 | 1010.5 |
| 20260507124004 | 14 | 14 | 1.6 | 9.7 | 0.05 | 0.41 | 0.41 | 95 | 1010.5 |
| 20260507121004 | 15 | 21 | 1.6 | 12.9 | 0.05 | 0.38 | 0.38 | 95 | 1009.7 |
| 20260507120005 | 15 | 10 | 1.6 | 11.3 | 0.08 | 0.38 | 0.38 | 95 | 1009.7 |
| 20260507114005 | 15 | 33 | 0.0 | 3.2 | 0.05 | 0.36 | 0.36 | 95 | 1009.7 |
| 20260507113005 | 15 | 9 | 0.0 | 0.0 | 0.05 | 0.33 | 0.33 | 95 | 1009.7 |
| 20260507112004 | 16 | 22 | 0.0 | 8.0 | 0.08 | 0.33 | 0.33 | 95 | 1009.7 |
| 20260507110004 | 16 | 16 | 1.6 | 14.5 | 0.05 | 0.30 | 0.30 | 95 | 1008.0 |
| 20260507105003 | 16 | 14 | 0.0 | 12.9 | 0.05 | 0.30 | 0.30 | 95 | 1008.0 |
| 20260507103004 | 16 | 14 | 1.6 | 16.1 | 0.03 | 0.28 | 0.28 | 95 | 1008.0 |
| 20260507102004 | 17 | 13 | 1.6 | 8.0 | 0.03 | 0.25 | 0.25 | 95 | 1008.0 |
| 20260507101003 | 17 | 4 | 0.0 | 12.9 | 0.10 | 0.25 | 0.25 | 95 | 1008.0 |
| 20260507100005 | 18 | 7 | 8.0 | 19.3 | 0.18 | 0.25 | 0.25 | 95 | 1008.0 |
| 20260507095004 | 19 | 6 | 1.6 | 4.8 | 0.18 | 0.25 | 0.25 | 96 | 1008.0 |
| 20260507092004 | 19 | 0 | 0.0 | 0.0 | 0.15 | 0.23 | 0.23 | 96 | 1008.0 |
| 20260507091004 | 19 | 0 | 0.0 | 0.0 | 0.08 | 0.15 | 0.15 | 96 | 1008.0 |
| 20260507090005 | 19 | 0 | 0.0 | 0.0 | 0.00 | 0.08 | 0.08 | 96 | 1008.0 |
| 20260507085004 | 19 | 0 | 0.0 | 0.0 | 0.00 | 0.08 | 0.08 | 96 | 1008.0 |
| 20260507084004 | 19 | 0 | 0.0 | 0.0 | 0.00 | 0.08 | 0.08 | 96 | 1008.0 |
| 20260507082004 | 19 | 0 | 0.0 | 0.0 | 0.00 | 0.08 | 0.08 | 96 | 1008.0 |
| 20260507081004 | 19 | 0 | 0.0 | 0.0 | 0.00 | 0.08 | 0.08 | 96 | 1008.0 |
| 20260507080005 | 19 | 0 | 0.0 | 0.0 | 0.00 | 0.08 | 0.08 | 96 | 1008.0 |
| 20260507075004 | 19 | 0 | 0.0 | 0.0 | 0.00 | 0.08 | 0.08 | 96 | 1008.0 |
| 20260507074004 | 19 | 0 | 0.0 | 0.0 | 0.00 | 0.08 | 0.08 | 96 | 1008.1 |
| 20260507073004 | 19 | 0 | 0.0 | 0.0 | 0.00 | 0.08 | 0.08 | 96 | 1008.1 |
| 20260507072004 | 19 | 0 | 0.0 | 0.0 | 0.00 | 0.08 | 0.08 | 95 | 1008.1 |
| 20260507071004 | 19 | 0 | 0.0 | 0.0 | 0.03 | 0.08 | 0.08 | 95 | 1008.1 |
| 20260507070009 | 20 | 0 | 0.0 | 0.0 | 0.05 | 0.08 | 0.08 | 95 | 1008.1 |
| 20260507065004 | 20 | 0 | 0.0 | 0.0 | 0.05 | 0.08 | 0.08 | 95 | 1007.8 |
| 20260507064004 | 20 | 0 | 0.0 | 0.0 | 0.05 | 0.08 | 0.08 | 94 | 1007.8 |
| 20260507063004 | 20 | 0 | 0.0 | 0.0 | 0.08 | 0.08 | 0.08 | 94 | 1009.2 |
| 20260507062004 | 20 | 0 | 0.0 | 0.0 | 0.08 | 0.08 | 0.08 | 93 | 1009.2 |
| 20260507061004 | 20 | 1 | 0.0 | 0.0 | 0.05 | 0.05 | 0.05 | 93 | 1009.2 |
| 20260507060005 | 20 | 0 | 0.0 | 1.6 | 0.03 | 0.03 | 0.03 | 92 | 1009.2 |
| 20260507055004 | 20 | 0 | 0.0 | 1.6 | 0.03 | 0.03 | 0.03 | 91 | 1009.2 |
| 20260507054004 | 20 | 0 | 0.0 | 0.0 | 0.03 | 0.03 | 0.03 | 90 | 1009.2 |
| 20260507053004 | 20 | 0 | 0.0 | 0.0 | 0.00 | 0.00 | 0.00 | 90 | 1009.2 |
| 20260507052003 | 20 | 0 | 0.0 | 0.0 | 0.00 | 0.00 | 0.00 | 89 | 1009.2 |
| 20260507050006 | 21 | 0 | 0.0 | 0.0 | 0.00 | 0.00 | 0.00 | 88 | 1009.2 |
| 20260507045003 | 21 | 0 | 0.0 | 0.0 | 0.00 | 0.00 | 0.00 | 87 | 1009.2 |
| 20260507044004 | 21 | 0 | 0.0 | 1.6 | 0.00 | 0.00 | 0.00 | 86 | 1009.2 |
| 20260507043004 | 21 | 0 | 0.0 | 0.0 | 0.00 | 0.00 | 0.00 | 86 | 1009.2 |
| 20260507042004 | 21 | 0 | 0.0 | 0.0 | 0.00 | 0.00 | 0.00 | 85 | 1009.2 |
| 20260507041004 | 21 | 0 | 0.0 | 0.0 | 0.00 | 0.00 | 0.00 | 85 | 1009.2 |
| 20260507040004 | 21 | 0 | 0.0 | 0.0 | 0.00 | 0.00 | 0.00 | 85 | 1009.2 |
| 20260507035005 | 21 | 0 | 0.0 | 0.0 | 0.00 | 0.00 | 0.00 | 85 | 1009.2 |
| 20260507034004 | 21 | 0 | 0.0 | 1.6 | 0.00 | 0.00 | 0.00 | 85 | 1009.2 |
| 20260507033004 | 21 | 0 | 0.0 | 0.0 | 0.00 | 0.00 | 0.00 | 85 | 1009.4 |
| 20260507032004 | 21 | 0 | 0.0 | 4.8 | 0.00 | 0.00 | 0.00 | 85 | 1009.4 |
| 20260507025004 | 20 | 0 | 0.0 | 0.0 | 0.00 | 0.00 | 0.00 | 86 | 1009.4 |
| 20260507024004 | 20 | 13 | 0.0 | 0.0 | 0.00 | 0.00 | 0.00 | 85 | 1009.4 |
| 20260507023005 | 20 | 0 | 0.0 | 0.0 | 0.00 | 0.00 | 0.00 | 85 | 1009.4 |
| 20260507022004 | 20 | 0 | 0.0 | 0.0 | 0.00 | 0.00 | 0.00 | 84 | 1009.4 |
| 20260507021004 | 20 | 0 | 0.0 | 0.0 | 0.00 | 0.00 | 0.00 | 84 | 1009.4 |
| 20260507020004 | 21 | 0 | 0.0 | 0.0 | 0.00 | 0.00 | 0.00 | 83 | 1009.4 |
| 20260507014003 | 21 | 0 | 0.0 | 0.0 | 0.00 | 0.00 | 0.00 | 82 | 1009.4 |
| 20260507013004 | 21 | 0 | 0.0 | 0.0 | 0.00 | 0.00 | 0.00 | 82 | 1009.4 |
| 20260507012005 | 21 | 0 | 0.0 | 0.0 | 0.00 | 0.00 | 0.00 | 82 | 1009.4 |
| 20260507005004 | 21 | 196 | 0.0 | 0.0 | 0.00 | 0.00 | 0.00 | 79 | 1009.5 |
| 20260507004004 | 22 | 190 | 0.0 | 0.0 | 0.00 | 0.00 | 0.00 | 79 | 1009.5 |
| 20260507002006 | 22 | 180 | 0.0 | 0.0 | 0.00 | 0.00 | 0.00 | 78 | 1008.8 |
| 20260507001004 | 22 | 217 | 0.0 | 0.0 | 0.00 | 0.00 | 0.00 | 77 | 1008.8 |
| 20260506235003 | 22 | 216 | 0.0 | 0.0 | 0.00 | 0.00 | 0.00 | 76 | 1008.8 |
| 20260506234004 | 22 | 265 | 0.0 | 0.0 | 0.00 | 0.00 | 0.00 | 76 | 1008.8 |
| 20260506233004 | 22 | 236 | 0.0 | 0.0 | 0.00 | 0.00 | 0.00 | 75 | 1008.8 |
| 20260506225004 | 23 | 221 | 0.0 | 0.0 | 0.00 | 0.00 | 0.00 | 75 | 1008.8 |
| 20260506223004 | 23 | 342 | 0.0 | 0.0 | 0.00 | 0.00 | 0.00 | 74 | 1008.8 |
| 20260506222004 | 23 | 356 | 0.0 | 0.0 | 0.00 | 0.00 | 0.00 | 74 | 1008.8 |
| 20260506221004 | 23 | 143 | 0.0 | 0.0 | 0.00 | 0.00 | 0.00 | 74 | 1008.8 |
| 20260506220004 | 23 | 0 | 0.0 | 0.0 | 0.00 | 0.00 | 0.00 | 75 | 1008.8 |
| 20260506215005 | 23 | 349 | 0.0 | 4.8 | 0.00 | 0.00 | 0.00 | 74 | 1008.8 |
| 20260506214004 | 23 | 0 | 0.0 | 0.0 | 0.00 | 0.00 | 0.00 | 75 | 1008.4 |
| 20260506213004 | 23 | 308 | 0.0 | 0.0 | 0.00 | 0.00 | 0.00 | 74 | 1008.4 |
| 20260506211003 | 23 | 349 | 0.0 | 0.0 | 0.00 | 0.00 | 0.00 | 73 | 1008.4 |
| 20260506205004 | 23 | 298 | 0.0 | 4.8 | 0.00 | 0.00 | 0.00 | 72 | 1008.4 |
| 20260506203004 | 23 | 259 | 0.0 | 4.8 | 0.00 | 0.00 | 0.00 | 73 | 1008.4 |
| 20260506202004 | 23 | 269 | 0.0 | 4.8 | 0.00 | 0.00 | 0.00 | 75 | 1008.4 |
| 20260506201004 | 23 | 4 | 0.0 | 3.2 | 0.00 | 0.00 | 0.00 | 74 | 1010.5 |
| 20260506200004 | 23 | 323 | 0.0 | 4.8 | 0.00 | 0.00 | 0.00 | 75 | 1010.5 |
| 20260506195004 | 23 | 348 | 0.0 | 4.8 | 0.00 | 0.00 | 0.00 | 74 | 1010.5 |
| 20260506194004 | 23 | 355 | 1.6 | 19.3 | 0.00 | 0.00 | 0.00 | 72 | 1010.5 |
| 20260506193005 | 23 | 334 | 0.0 | 4.8 | 0.00 | 0.00 | 0.00 | 73 | 1010.5 |
| 20260506192005 | 23 | 322 | 0.0 | 9.7 | 0.00 | 0.00 | 0.00 | 73 | 1010.5 |
| 20260506191004 | 23 | 0 | 0.0 | 8.0 | 0.00 | 0.00 | 0.00 | 72 | 1010.5 |
| 20260506190006 | 23 | 0 | 0.0 | 0.0 | 0.00 | 0.00 | 0.00 | 74 | 1010.5 |
| 20260506184005 | 23 | 0 | 0.0 | 1.6 | 0.00 | 0.00 | 0.00 | 75 | 1010.5 |
| 20260506183006 | 23 | 0 | 0.0 | 8.0 | 0.00 | 0.00 | 0.00 | 71 | 1010.6 |
| 20260506182005 | 23 | 0 | 0.0 | 4.8 | 0.00 | 0.00 | 0.00 | 71 | 1010.6 |
| 20260506181003 | 23 | 0 | 0.0 | 4.8 | 0.00 | 0.00 | 0.00 | 73 | 1010.5 |
| 20260506180005 | 23 | 219 | 0.0 | 11.3 | 0.00 | 0.00 | 0.00 | 75 | 1011.9 |
| 20260506175004 | 23 | 2 | 1.6 | 8.0 | 0.00 | 0.00 | 0.00 | 75 | 1011.9 |
| 20260506173004 | 22 | 262 | 0.0 | 11.3 | 0.00 | 0.00 | 0.00 | 78 | 1011.9 |
| 20260506172004 | 22 | 281 | 0.0 | 11.3 | 0.00 | 0.00 | 0.00 | 80 | 1011.9 |
| 20260506170004 | 21 | 0 | 1.6 | 4.8 | 0.00 | 0.00 | 0.00 | 83 | 1011.9 |
| 20260506165004 | 20 | 0 | 0.0 | 8.0 | 0.00 | 0.00 | 0.00 | 86 | 1011.9 |
| 20260506163004 | 20 | 0 | 0.0 | 0.0 | 0.00 | 0.00 | 0.00 | 87 | 1011.9 |
| 20260506162004 | 20 | 0 | 0.0 | 3.2 | 0.00 | 0.00 | 0.00 | 85 | 1012.6 |
| 20260506160004 | 20 | 0 | 0.0 | 0.0 | 0.00 | 0.00 | 0.00 | 82 | 1012.6 |
| 20260506154004 | 20 | 0 | 0.0 | 0.0 | 0.00 | 0.00 | 0.00 | 83 | 1012.6 |
| 20260506153004 | 20 | 0 | 1.6 | 4.8 | 0.00 | 0.00 | 0.00 | 83 | 1012.6 |
| 20260506152004 | 20 | 0 | 0.0 | 4.8 | 0.00 | 0.00 | 0.00 | 83 | 1012.6 |
| 20260506151004 | 20 | 0 | 0.0 | 0.0 | 0.00 | 0.00 | 0.00 | 82 | 1012.6 |
| 20260506145004 | 20 | 0 | 1.6 | 14.5 | 0.00 | 0.00 | 0.00 | 82 | 1012.6 |
| 20260506144004 | 20 | 14 | 0.0 | 8.0 | 0.00 | 0.00 | 0.00 | 81 | 1012.6 |
| 20260506143004 | 20 | 0 | 0.0 | 4.8 | 0.00 | 0.00 | 0.00 | 82 | 1012.6 |
| 20260506141004 | 20 | 0 | 0.0 | 8.0 | 0.00 | 0.00 | 0.00 | 82 | 1012.6 |